Time;durP1;ratioP1;P1;durP2;ratioP2;P2;SDS_P1;SDS_P2;PMS_P1;PMS_P2;Temp;Humidity;BMP_temperature;BMP_pressure;BME280_temperature;BME280_humidity;BME280_pressure;Samples;Min_cycle;Max_cycle;Signal;HPM_P1;HPM_P2
2021/11/10 00:01:52;;;;;;;8.47;6.60;;;7.10;99.90;;;;;;5012011;28;20406;-74
2021/11/10 00:04:20;;;;;;;8.50;5.90;;;7.10;99.90;;;;;;5012555;28;20925;-74
2021/11/10 00:06:46;;;;;;;8.57;6.40;;;7.10;99.90;;;;;;5012207;28;20531;-75
2021/11/10 00:09:11;;;;;;;8.57;6.33;;;7.10;99.90;;;;;;5011992;28;20807;-75
2021/11/10 00:11:37;;;;;;;7.30;5.87;;;7.10;99.90;;;;;;5006856;28;20190;-75
2021/11/10 00:14:03;;;;;;;8.90;6.00;;;7.10;99.90;;;;;;5009899;28;20242;-75
2021/11/10 00:16:30;;;;;;;8.73;6.63;;;7.10;99.90;;;;;;5009161;28;20415;-74
2021/11/10 00:18:56;;;;;;;9.13;6.70;;;7.00;99.90;;;;;;5009760;28;20418;-75
2021/11/10 00:21:26;;;;;;;10.10;7.50;;;7.00;99.90;;;;;;5008454;28;20419;-73
2021/11/10 00:23:53;;;;;;;9.30;6.20;;;7.00;99.90;;;;;;5010072;28;20415;-75
2021/11/10 00:26:18;;;;;;;8.40;6.53;;;7.00;99.90;;;;;;5010488;28;20415;-75
2021/11/10 00:28:44;;;;;;;7.97;6.77;;;7.00;99.90;;;;;;5013492;28;20461;-75
2021/11/10 00:31:10;;;;;;;9.77;5.90;;;7.00;99.90;;;;;;5015267;28;20672;-75
2021/11/10 00:33:36;;;;;;;7.87;5.73;;;7.00;99.90;;;;;;5015501;28;20537;-75
2021/11/10 00:36:02;;;;;;;9.27;5.73;;;7.00;99.90;;;;;;5015294;28;20255;-74
2021/11/10 00:38:28;;;;;;;10.70;6.40;;;6.90;99.90;;;;;;5015027;28;20206;-74
2021/11/10 00:40:53;;;;;;;8.43;6.10;;;6.90;99.90;;;;;;4997326;28;20402;-74
2021/11/10 00:43:19;;;;;;;6.10;5.50;;;7.00;99.90;;;;;;5014691;28;20184;-73
2021/11/10 00:45:44;;;;;;;6.30;5.70;;;7.00;99.90;;;;;;5013584;28;20183;-73
2021/11/10 00:48:13;;;;;;;6.00;5.23;;;6.90;99.90;;;;;;5015014;28;20274;-74
2021/11/10 00:50:38;;;;;;;9.27;5.93;;;6.90;99.90;;;;;;5015373;28;20175;-75
2021/11/10 00:53:06;;;;;;;8.70;5.47;;;6.90;99.90;;;;;;5014214;28;20433;-75
2021/11/10 00:55:32;;;;;;;7.40;5.70;;;6.80;99.90;;;;;;5014866;28;20652;-74
2021/11/10 00:57:58;;;;;;;9.30;5.90;;;6.80;99.90;;;;;;5014757;28;20537;-74
2021/11/10 01:00:24;;;;;;;7.23;5.87;;;6.80;99.90;;;;;;5014820;28;20903;-74
2021/11/10 01:02:50;;;;;;;7.13;5.50;;;6.80;99.90;;;;;;5014746;28;20640;-74
2021/11/10 01:05:16;;;;;;;7.40;6.20;;;6.80;99.90;;;;;;5013073;28;20421;-74
2021/11/10 01:07:42;;;;;;;8.90;6.03;;;6.80;99.90;;;;;;5011352;28;20874;-74
2021/11/10 01:10:09;;;;;;;8.27;6.33;;;6.80;99.90;;;;;;5009120;28;20429;-75
2021/11/10 01:12:34;;;;;;;9.57;5.60;;;6.80;99.90;;;;;;5014267;28;20434;-74
2021/11/10 01:15:01;;;;;;;8.97;5.37;;;6.70;99.90;;;;;;5013750;28;20472;-74
2021/11/10 01:17:27;;;;;;;9.33;5.47;;;6.60;99.90;;;;;;5014620;28;20664;-74
2021/11/10 01:19:52;;;;;;;5.87;5.27;;;6.60;99.90;;;;;;4996755;28;20402;-74
2021/11/10 01:22:18;;;;;;;9.90;6.53;;;6.60;99.90;;;;;;4996672;28;20433;-74
2021/11/10 01:24:44;;;;;;;7.00;5.63;;;6.60;99.90;;;;;;5014445;28;20179;-74
2021/11/10 01:27:10;;;;;;;7.10;5.60;;;6.60;99.90;;;;;;5014453;28;20207;-74
2021/11/10 01:29:36;;;;;;;9.13;5.87;;;6.50;99.90;;;;;;5019618;28;20426;-75
2021/11/10 01:32:03;;;;;;;6.93;4.93;;;6.50;99.90;;;;;;5013909;28;20182;-74
2021/11/10 01:34:29;;;;;;;8.20;5.60;;;6.50;99.90;;;;;;5014123;28;21013;-75
2021/11/10 01:36:54;;;;;;;6.40;5.80;;;6.60;99.90;;;;;;5013511;28;20478;-74
2021/11/10 01:39:22;;;;;;;13.33;5.40;;;6.50;99.90;;;;;;5014286;28;20584;-75
2021/11/10 01:41:50;;;;;;;7.93;5.40;;;6.50;99.90;;;;;;4995911;28;20183;-74
2021/11/10 01:44:24;;;;;;;8.20;4.63;;;6.30;99.90;;;;;;5013553;28;20483;-74
2021/11/10 01:46:52;;;;;;;6.23;4.70;;;6.30;99.90;;;;;;5013610;28;20996;-74
2021/11/10 01:49:18;;;;;;;5.10;4.53;;;6.20;99.90;;;;;;5014030;28;20421;-74
2021/11/10 01:51:49;;;;;;;5.30;4.80;;;6.10;99.90;;;;;;5013974;28;20426;-74
2021/11/10 01:54:17;;;;;;;8.73;5.60;;;6.10;99.90;;;;;;5013547;28;20215;-74
2021/11/10 01:56:43;;;;;;;6.47;5.37;;;6.10;99.90;;;;;;5013854;28;20414;-74
2021/11/10 01:59:09;;;;;;;7.93;5.50;;;6.10;99.90;;;;;;5014294;28;20415;-74
2021/11/10 02:01:46;;;;;;;8.67;5.90;;;6.00;99.90;;;;;;4996058;28;20414;-74
2021/11/10 02:04:13;;;;;;;6.20;5.60;;;6.00;99.90;;;;;;4995608;28;20468;-74
2021/11/10 02:06:39;;;;;;;7.10;5.53;;;6.10;99.90;;;;;;4995473;28;20473;-73
2021/11/10 02:09:06;;;;;;;8.33;6.00;;;6.00;99.90;;;;;;5013410;28;20425;-74
2021/11/10 02:11:33;;;;;;;8.20;6.70;;;5.90;99.90;;;;;;5013673;28;20927;-74
2021/11/10 02:13:59;;;;;;;8.27;6.37;;;5.90;99.90;;;;;;5013299;28;20465;-74
2021/11/10 02:16:25;;;;;;;10.93;6.20;;;6.00;99.90;;;;;;5013018;28;20948;-74
2021/11/10 02:18:51;;;;;;;8.63;5.73;;;6.00;99.90;;;;;;5013239;28;20426;-74
2021/11/10 02:21:18;;;;;;;6.57;5.87;;;6.00;99.90;;;;;;5013363;28;20414;-74
2021/11/10 02:23:44;;;;;;;8.77;5.77;;;6.00;99.90;;;;;;4995786;28;20473;-74
2021/11/10 02:26:15;;;;;;;8.53;6.23;;;6.00;99.90;;;;;;5012886;28;20460;-74
2021/11/10 02:28:41;;;;;;;8.40;5.50;;;6.00;99.90;;;;;;5013152;28;21028;-73
2021/11/10 02:31:07;;;;;;;8.90;6.47;;;6.00;99.90;;;;;;5013248;28;20507;-73
2021/11/10 02:33:32;;;;;;;6.07;4.93;;;6.00;99.90;;;;;;4995700;28;20228;-73
2021/11/10 02:36:03;;;;;;;9.00;5.60;;;6.00;99.90;;;;;;5013004;28;20775;-74
2021/11/10 02:38:30;;;;;;;6.77;5.07;;;6.00;99.90;;;;;;5013550;28;20195;-74
2021/11/10 02:40:58;;;;;;;6.70;5.27;;;6.00;99.90;;;;;;5013218;28;20446;-74
2021/11/10 02:43:24;;;;;;;7.50;5.73;;;6.00;99.90;;;;;;5013200;28;20434;-74
2021/11/10 02:45:49;;;;;;;8.53;6.20;;;5.90;99.90;;;;;;4995313;28;20414;-74
2021/11/10 02:48:16;;;;;;;7.67;4.90;;;6.00;99.90;;;;;;5013545;28;20207;-73
2021/11/10 02:50:42;;;;;;;8.70;5.20;;;6.00;99.90;;;;;;5013174;28;20215;-74
2021/11/10 02:53:08;;;;;;;8.37;5.60;;;6.00;99.90;;;;;;5013662;28;20430;-73
2021/11/10 02:55:33;;;;;;;6.80;6.10;;;5.90;99.90;;;;;;5012859;28;20752;-73
2021/11/10 02:57:59;;;;;;;6.77;5.00;;;5.80;99.90;;;;;;4995360;28;20290;-73
2021/11/10 03:00:26;;;;;;;7.70;5.20;;;5.90;99.90;;;;;;5013291;28;20673;-74
2021/11/10 03:02:52;;;;;;;6.47;4.90;;;5.80;99.90;;;;;;5013019;28;20431;-73
2021/11/10 03:05:18;;;;;;;12.90;4.57;;;5.80;99.90;;;;;;5012845;28;20768;-74
2021/11/10 03:07:44;;;;;;;6.90;4.50;;;5.70;99.90;;;;;;5011701;28;20492;-73
2021/11/10 03:10:09;;;;;;;6.80;4.70;;;5.80;99.90;;;;;;5021326;22;20430;-72
2021/11/10 03:12:35;;;;;;;7.40;4.30;;;5.80;99.90;;;;;;5035647;28;20194;-69
2021/11/10 03:15:01;;;;;;;6.27;5.23;;;5.70;99.90;;;;;;5042264;28;20212;-69
2021/11/10 03:17:27;;;;;;;5.67;4.90;;;5.70;99.90;;;;;;5035170;28;20737;-69
2021/11/10 03:19:53;;;;;;;8.70;4.40;;;5.60;99.90;;;;;;5040346;28;20416;-69
2021/11/10 03:22:20;;;;;;;7.13;5.13;;;5.60;99.90;;;;;;5035864;28;20458;-69
2021/11/10 03:24:45;;;;;;;6.73;4.50;;;5.60;99.90;;;;;;5021734;28;20423;-69
2021/11/10 03:27:11;;;;;;;8.03;5.27;;;5.60;99.90;;;;;;5012808;28;20430;-69
2021/11/10 03:29:38;;;;;;;6.87;5.30;;;5.50;99.90;;;;;;5012527;28;20650;-70
2021/11/10 03:32:06;;;;;;;6.43;4.80;;;5.50;99.90;;;;;;5012359;28;20948;-70
2021/11/10 03:34:32;;;;;;;7.07;4.80;;;5.50;99.90;;;;;;5012882;28;20455;-70
2021/11/10 03:36:57;;;;;;;6.27;4.93;;;5.60;99.90;;;;;;5012004;28;20439;-70
2021/11/10 03:39:23;;;;;;;6.83;4.70;;;5.60;99.90;;;;;;5011790;28;20234;-70
2021/11/10 03:41:49;;;;;;;5.47;4.10;;;5.60;99.90;;;;;;5011825;28;20187;-69
2021/11/10 03:44:15;;;;;;;6.57;5.60;;;5.60;99.90;;;;;;5012324;28;20241;-70
2021/11/10 03:46:42;;;;;;;6.27;5.13;;;5.60;99.90;;;;;;5012754;28;20185;-70
2021/11/10 03:49:08;;;;;;;8.23;5.93;;;5.60;99.90;;;;;;5012027;28;20419;-70
2021/11/10 03:51:34;;;;;;;7.87;4.90;;;5.60;99.90;;;;;;5012067;28;20527;-71
2021/11/10 03:54:00;;;;;;;5.97;4.70;;;5.60;99.90;;;;;;5012054;28;20545;-70
2021/11/10 03:56:25;;;;;;;11.80;4.93;;;5.60;99.90;;;;;;5012564;28;20434;-70
2021/11/10 03:58:51;;;;;;;7.90;6.03;;;5.70;99.90;;;;;;5012112;28;20242;-70
2021/11/10 04:01:17;;;;;;;6.87;5.13;;;5.70;99.90;;;;;;5013042;28;20288;-70
2021/11/10 04:03:43;;;;;;;5.00;4.40;;;5.60;99.90;;;;;;5015851;28;20595;-71
2021/11/10 04:06:09;;;;;;;8.07;4.80;;;5.70;99.90;;;;;;5016170;28;20422;-70
2021/11/10 04:08:35;;;;;;;8.90;5.03;;;5.70;99.90;;;;;;5016035;28;20202;-69
2021/11/10 04:11:01;;;;;;;5.30;4.50;;;5.60;99.90;;;;;;4998131;28;20501;-70
2021/11/10 04:13:28;;;;;;;10.70;4.73;;;5.60;99.90;;;;;;5015550;28;20217;-69
2021/11/10 04:15:54;;;;;;;8.30;5.10;;;5.60;99.90;;;;;;5015326;28;20463;-69
2021/11/10 04:18:20;;;;;;;6.87;5.17;;;5.60;99.90;;;;;;5016534;28;20850;-69
2021/11/10 04:20:45;;;;;;;8.17;4.87;;;5.60;99.90;;;;;;5015615;28;20195;-70
2021/11/10 04:23:11;;;;;;;8.07;5.30;;;5.60;99.90;;;;;;5015218;28;20174;-70
2021/11/10 04:25:37;;;;;;;5.97;5.23;;;5.60;99.90;;;;;;5015093;28;20551;-70
2021/11/10 04:28:03;;;;;;;7.27;4.70;;;5.60;99.90;;;;;;5016392;28;20187;-69
2021/11/10 04:30:28;;;;;;;9.40;4.53;;;5.60;99.90;;;;;;5015152;28;20436;-68
2021/11/10 04:32:54;;;;;;;6.63;4.90;;;5.70;99.90;;;;;;5015224;28;20418;-70
2021/11/10 04:35:20;;;;;;;6.97;4.77;;;5.70;99.90;;;;;;5013770;28;20207;-70
2021/11/10 04:37:45;;;;;;;6.20;4.23;;;5.80;99.90;;;;;;5015362;28;20552;-70
2021/11/10 04:40:12;;;;;;;6.53;4.37;;;5.80;99.90;;;;;;5016268;28;20188;-70
2021/11/10 04:42:39;;;;;;;6.90;4.80;;;5.80;99.90;;;;;;5010365;28;20433;-72
2021/11/10 04:45:09;;;;;;;9.70;5.20;;;5.70;99.90;;;;;;5034709;28;20411;-70
2021/11/10 04:47:36;;;;;;;6.87;4.87;;;5.70;99.90;;;;;;5035172;28;20507;-70
2021/11/10 04:50:03;;;;;;;8.50;5.27;;;5.60;99.90;;;;;;5034769;28;20430;-71
2021/11/10 04:52:29;;;;;;;7.20;5.00;;;5.60;99.90;;;;;;5032818;28;20445;-70
2021/11/10 04:54:55;;;;;;;5.80;4.33;;;5.60;99.90;;;;;;5034174;28;20470;-70
2021/11/10 04:57:20;;;;;;;5.87;5.17;;;5.60;99.90;;;;;;5034649;28;20171;-70
2021/11/10 04:59:46;;;;;;;5.80;5.20;;;5.50;99.90;;;;;;5034638;28;20216;-70
2021/11/10 05:04:39;;;;;;;8.57;5.57;;;5.50;99.90;;;;;;5034056;28;20188;-69
2021/11/10 05:07:05;;;;;;;10.07;5.00;;;5.50;99.90;;;;;;5034045;28;20187;-71
2021/11/10 05:09:31;;;;;;;10.37;4.83;;;5.50;99.90;;;;;;5036118;28;20417;-70
2021/11/10 05:11:57;;;;;;;8.00;5.00;;;5.60;99.90;;;;;;5016486;28;20961;-69
2021/11/10 05:14:23;;;;;;;9.17;5.43;;;5.50;99.90;;;;;;5022040;28;20208;-69
2021/11/10 05:16:50;;;;;;;5.13;4.63;;;5.50;99.90;;;;;;5014203;28;20917;-71
2021/11/10 05:19:16;;;;;;;7.70;5.50;;;5.50;99.90;;;;;;5014295;28;20438;-71
2021/11/10 05:21:41;;;;;;;7.77;5.50;;;5.60;99.90;;;;;;5014546;28;20524;-70
2021/11/10 05:24:08;;;;;;;7.70;5.17;;;5.60;99.90;;;;;;5015581;28;20263;-69
2021/11/10 05:26:34;;;;;;;6.00;5.40;;;5.60;99.90;;;;;;5014210;28;20788;-70
2021/11/10 05:29:00;;;;;;;10.57;6.10;;;5.70;99.90;;;;;;5014320;28;20418;-70
2021/11/10 05:31:25;;;;;;;6.43;5.83;;;5.70;99.90;;;;;;5014469;28;20461;-70
2021/11/10 05:33:51;;;;;;;6.53;4.90;;;5.70;99.90;;;;;;5014289;28;20206;-70
2021/11/10 05:36:17;;;;;;;7.80;6.00;;;5.70;99.90;;;;;;5014878;28;20190;-70
2021/11/10 05:38:43;;;;;;;7.10;5.93;;;5.60;99.90;;;;;;5014142;28;20418;-70
2021/11/10 05:41:09;;;;;;;11.17;6.10;;;5.60;99.90;;;;;;4997212;28;20515;-70
2021/11/10 05:43:35;;;;;;;6.40;4.80;;;5.60;99.90;;;;;;5014346;28;20185;-70
2021/11/10 05:46:01;;;;;;;8.07;5.80;;;5.70;99.90;;;;;;5020076;28;21066;-70
2021/11/10 05:48:27;;;;;;;10.80;6.50;;;5.70;99.90;;;;;;5031543;28;20440;-70
2021/11/10 05:50:53;;;;;;;8.50;6.20;;;5.70;99.90;;;;;;5029529;28;20211;-70
2021/11/10 05:53:18;;;;;;;10.37;7.30;;;5.60;99.90;;;;;;5026890;28;20202;-69
2021/11/10 05:55:45;;;;;;;8.10;6.80;;;5.50;99.90;;;;;;5032152;28;20427;-70
2021/11/10 05:58:11;;;;;;;9.03;8.17;;;5.50;99.90;;;;;;5031589;28;20170;-69
2021/11/10 06:00:37;;;;;;;8.80;7.90;;;5.60;99.90;;;;;;5028249;28;20441;-70
2021/11/10 06:03:03;;;;;;;10.27;7.10;;;5.60;99.90;;;;;;5033394;28;20418;-69
2021/11/10 06:05:29;;;;;;;7.47;5.47;;;5.60;99.90;;;;;;5028551;28;20434;-69
2021/11/10 06:07:56;;;;;;;6.87;5.20;;;5.60;99.90;;;;;;5029417;28;20438;-70
2021/11/10 06:10:22;;;;;;;6.03;5.43;;;5.60;99.90;;;;;;5030488;28;20703;-70
2021/11/10 06:12:49;;;;;;;7.00;5.83;;;5.70;99.90;;;;;;5032413;28;20409;-69
2021/11/10 06:15:15;;;;;;;6.80;6.10;;;5.60;99.90;;;;;;5031421;28;20471;-69
2021/11/10 06:17:40;;;;;;;10.70;6.57;;;5.60;99.90;;;;;;5026487;28;20483;-69
2021/11/10 06:20:08;;;;;;;17.20;7.30;;;5.60;99.90;;;;;;5032771;28;20429;-69
2021/11/10 06:22:34;;;;;;;9.63;7.00;;;5.60;99.90;;;;;;5028510;28;20640;-70
2021/11/10 06:24:59;;;;;;;8.33;6.33;;;5.60;99.90;;;;;;5031553;28;20420;-71
2021/11/10 06:27:26;;;;;;;11.50;6.70;;;5.70;99.90;;;;;;5032155;28;20470;-70
2021/11/10 06:29:52;;;;;;;7.00;6.30;;;5.70;99.90;;;;;;5019518;28;20259;-71
2021/11/10 06:32:18;;;;;;;8.53;7.20;;;5.60;99.90;;;;;;5026793;28;20447;-71
2021/11/10 06:34:44;;;;;;;6.60;5.97;;;5.60;99.90;;;;;;5030852;28;20479;-71
2021/11/10 06:37:09;;;;;;;12.00;6.40;;;5.60;99.90;;;;;;5021339;28;20180;-71
2021/11/10 06:39:35;;;;;;;11.40;7.37;;;5.70;99.90;;;;;;5027803;28;20916;-69
2021/11/10 06:42:01;;;;;;;11.23;6.57;;;5.70;99.90;;;;;;5031473;28;20204;-69
2021/11/10 06:44:26;;;;;;;8.73;6.10;;;5.70;99.90;;;;;;5026346;28;20279;-69
2021/11/10 06:46:52;;;;;;;8.00;6.17;;;5.70;99.90;;;;;;5026946;28;20528;-71
2021/11/10 06:49:18;;;;;;;8.60;5.80;;;5.80;99.90;;;;;;5028333;28;20256;-70
2021/11/10 06:51:44;;;;;;;8.10;5.47;;;5.80;99.90;;;;;;5024882;28;20215;-67
2021/11/10 06:54:10;;;;;;;8.13;6.20;;;5.80;99.90;;;;;;5029089;28;20212;-69
2021/11/10 06:56:35;;;;;;;11.90;6.60;;;5.70;99.90;;;;;;5026210;28;20503;-69
2021/11/10 06:59:03;;;;;;;7.77;6.30;;;5.60;99.90;;;;;;5031170;28;20951;-70
2021/11/10 07:01:29;;;;;;;8.90;7.00;;;5.50;99.90;;;;;;5022000;28;20206;-69
2021/11/10 07:03:54;;;;;;;8.20;7.20;;;5.40;99.90;;;;;;5033362;28;20999;-69
2021/11/10 07:06:20;;;;;;;8.90;7.07;;;5.40;99.90;;;;;;5025862;28;20302;-69
2021/11/10 07:08:45;;;;;;;10.03;6.50;;;5.30;99.90;;;;;;5012647;28;20232;-69
2021/11/10 07:11:11;;;;;;;10.10;7.00;;;5.40;99.90;;;;;;5032674;28;20689;-69
2021/11/10 07:13:37;;;;;;;9.87;6.60;;;5.50;99.90;;;;;;5034681;28;20290;-69
2021/11/10 07:16:04;;;;;;;12.00;6.17;;;5.50;99.90;;;;;;5014155;28;20707;-69
2021/11/10 07:18:29;;;;;;;10.50;6.60;;;5.60;99.90;;;;;;5050836;28;20191;-69
2021/11/10 07:20:55;;;;;;;8.10;7.17;;;5.60;99.90;;;;;;5050077;28;20968;-68
2021/11/10 07:23:21;;;;;;;9.60;7.00;;;5.60;99.90;;;;;;5050889;28;20733;-68
2021/11/10 07:25:47;;;;;;;10.17;6.70;;;5.70;99.90;;;;;;5033980;28;20245;-68
2021/11/10 07:28:13;;;;;;;6.97;5.83;;;5.80;99.90;;;;;;5051857;28;20774;-69
2021/11/10 07:30:40;;;;;;;11.07;7.43;;;5.90;99.90;;;;;;5049894;28;20433;-68
2021/11/10 07:33:07;;;;;;;7.90;6.90;;;5.90;99.90;;;;;;5050247;28;20197;-69
2021/11/10 07:35:33;;;;;;;8.97;6.57;;;5.90;99.90;;;;;;5025784;28;20517;-69
2021/11/10 07:37:58;;;;;;;10.50;7.00;;;5.90;99.90;;;;;;5010975;28;20450;-69
2021/11/10 07:40:25;;;;;;;7.63;6.83;;;6.00;99.90;;;;;;5015835;28;20457;-70
2021/11/10 07:42:50;;;;;;;8.93;6.40;;;6.00;99.90;;;;;;5041917;28;20225;-70
2021/11/10 07:45:21;;;;;;;9.13;7.23;;;5.90;99.90;;;;;;5042119;28;20450;-69
2021/11/10 07:47:47;;;;;;;12.60;7.63;;;5.90;99.90;;;;;;5010556;28;20205;-70
2021/11/10 07:50:19;;;;;;;9.20;7.33;;;6.00;99.90;;;;;;4994040;28;20444;-70
2021/11/10 07:52:46;;;;;;;10.80;7.60;;;6.00;99.90;;;;;;5011375;28;20450;-69
2021/11/10 07:55:12;;;;;;;8.73;7.50;;;6.00;99.90;;;;;;5009816;28;20465;-69
2021/11/10 07:57:39;;;;;;;13.27;9.50;;;6.10;99.90;;;;;;5011511;28;20469;-69
2021/11/10 08:00:08;;;;;;;11.50;8.80;;;6.10;99.90;;;;;;5010599;28;20427;-69
2021/11/10 08:02:33;;;;;;;10.30;7.60;;;6.10;99.90;;;;;;5010326;28;20442;-69
2021/11/10 08:04:59;;;;;;;9.30;7.37;;;6.20;99.90;;;;;;5017373;28;20825;-71
2021/11/10 08:07:24;;;;;;;14.33;6.70;;;6.20;99.90;;;;;;5032332;28;20202;-68
2021/11/10 08:09:50;;;;;;;10.40;8.17;;;6.20;99.90;;;;;;5048608;28;20659;-68
2021/11/10 08:12:16;;;;;;;10.93;8.03;;;6.20;99.90;;;;;;5031003;28;20695;-70
2021/11/10 08:14:42;;;;;;;13.50;8.50;;;6.20;99.90;;;;;;5029144;28;20238;-70
2021/11/10 08:17:07;;;;;;;9.27;7.80;;;6.20;99.90;;;;;;5043463;28;20464;-70
2021/11/10 08:19:33;;;;;;;11.07;8.03;;;6.30;99.90;;;;;;5050587;28;20177;-69
2021/11/10 08:21:58;;;;;;;11.00;7.83;;;6.30;99.90;;;;;;5050914;28;20564;-70
2021/11/10 08:24:26;;;;;;;9.93;8.23;;;6.40;99.90;;;;;;5051393;28;20178;-70
2021/11/10 08:26:52;;;;;;;10.90;8.20;;;6.40;99.90;;;;;;5021117;28;20254;-70
2021/11/10 08:29:18;;;;;;;11.17;8.63;;;6.40;99.90;;;;;;4993756;28;20505;-69
2021/11/10 08:31:43;;;;;;;12.90;8.20;;;6.50;99.90;;;;;;5011292;28;20282;-69
2021/11/10 08:34:09;;;;;;;16.30;8.73;;;6.50;99.90;;;;;;5012543;28;20628;-69
2021/11/10 08:36:34;;;;;;;9.47;8.30;;;6.60;99.90;;;;;;5011129;28;20171;-71
2021/11/10 08:39:00;;;;;;;12.63;8.40;;;6.70;99.90;;;;;;5011235;28;20181;-71
2021/11/10 08:41:26;;;;;;;12.47;9.10;;;6.80;99.90;;;;;;5013977;28;20269;-68
2021/11/10 08:43:51;;;;;;;9.90;8.17;;;6.80;99.90;;;;;;5030464;28;20688;-69
2021/11/10 08:46:18;;;;;;;11.10;7.97;;;6.90;99.90;;;;;;5030438;28;20541;-68
2021/11/10 08:48:44;;;;;;;9.60;7.90;;;7.00;99.90;;;;;;5034049;28;20666;-70
2021/11/10 08:51:10;;;;;;;9.10;7.77;;;7.00;99.90;;;;;;5026594;28;20441;-68
2021/11/10 08:53:35;;;;;;;12.80;8.13;;;7.00;99.90;;;;;;5023015;28;20203;-68
2021/11/10 08:56:03;;;;;;;9.83;7.87;;;7.00;99.90;;;;;;5028546;28;20615;-70
2021/11/10 08:58:29;;;;;;;14.80;8.17;;;7.00;99.90;;;;;;5029129;28;20190;-69
2021/11/10 09:00:55;;;;;;;12.57;8.37;;;7.10;99.90;;;;;;5030475;28;20429;-70
2021/11/10 09:03:22;;;;;;;9.60;8.07;;;7.10;99.90;;;;;;5012161;28;20186;-70
2021/11/10 09:05:49;;;;;;;10.90;7.33;;;7.20;99.90;;;;;;5030454;28;20406;-68
2021/11/10 09:08:15;;;;;;;9.30;8.10;;;7.20;99.90;;;;;;5030726;28;20926;-70
2021/11/10 09:10:42;;;;;;;14.30;9.07;;;7.40;99.90;;;;;;5020250;28;20887;-70
2021/11/10 09:13:08;;;;;;;11.80;7.87;;;7.50;99.90;;;;;;5012100;28;20421;-71
2021/11/10 09:15:34;;;;;;;10.17;7.50;;;7.60;99.90;;;;;;5033847;23;20485;-76
2021/11/10 09:18:03;;;;;;;11.77;8.00;;;7.70;99.90;;;;;;5019197;28;20970;-77
2021/11/10 09:20:29;;;;;;;11.40;8.10;;;7.80;99.90;;;;;;5029832;28;20497;-77
2021/11/10 09:22:57;;;;;;;11.87;8.57;;;7.90;99.90;;;;;;5031838;28;20442;-77
2021/11/10 09:25:24;;;;;;;9.17;8.13;;;8.00;99.90;;;;;;5021754;28;20500;-77
2021/11/10 09:27:50;;;;;;;8.73;7.83;;;8.10;99.90;;;;;;5031130;28;20475;-76
2021/11/10 09:30:18;;;;;;;12.83;8.07;;;8.20;99.90;;;;;;5032316;28;20444;-77
2021/11/10 09:32:46;;;;;;;12.70;8.30;;;8.30;99.90;;;;;;5031217;28;20405;-75
2021/11/10 09:35:13;;;;;;;9.50;8.60;;;8.40;99.90;;;;;;5030401;28;20809;-74
2021/11/10 09:37:39;;;;;;;8.77;7.70;;;8.50;99.90;;;;;;5030894;28;20413;-75
2021/11/10 09:40:09;;;;;;;10.13;7.67;;;8.60;99.90;;;;;;5012883;28;20444;-75
2021/11/10 09:42:35;;;;;;;12.10;8.87;;;8.70;99.90;;;;;;5032092;28;20413;-75
2021/11/10 09:45:03;;;;;;;10.03;9.03;;;8.90;99.90;;;;;;5030302;28;20856;-75
2021/11/10 09:47:29;;;;;;;15.70;9.13;;;8.90;99.90;;;;;;5031972;28;20433;-75
2021/11/10 09:49:55;;;;;;;9.97;8.13;;;9.10;99.90;;;;;;5031866;28;20410;-75
2021/11/10 09:52:21;;;;;;;12.33;8.27;;;9.20;99.90;;;;;;5031479;28;20406;-75
2021/11/10 09:54:47;;;;;;;13.07;8.90;;;9.40;99.90;;;;;;5030843;28;20680;-74
2021/11/10 09:57:13;;;;;;;9.93;7.67;;;9.60;99.90;;;;;;5030481;28;20443;-75
2021/11/10 09:59:39;;;;;;;9.27;7.70;;;9.70;99.90;;;;;;5030869;28;20172;-75
2021/11/10 10:02:11;;;;;;;9.63;8.50;;;9.80;99.90;;;;;;5013056;28;20419;-75
2021/11/10 10:04:40;;;;;;;9.50;7.87;;;10.00;99.90;;;;;;5024643;28;20434;-75
2021/11/10 10:07:07;;;;;;;11.03;8.87;;;10.10;99.90;;;;;;5023659;28;20534;-75
2021/11/10 10:09:33;;;;;;;11.10;8.90;;;10.20;99.90;;;;;;5028548;28;20449;-75
2021/11/10 10:11:59;;;;;;;12.10;8.60;;;10.30;99.90;;;;;;5018279;28;20839;-75
2021/11/10 10:14:24;;;;;;;9.33;7.30;;;10.40;99.90;;;;;;5027207;28;20231;-74
2021/11/10 10:16:50;;;;;;;10.17;7.33;;;10.40;99.90;;;;;;5011825;28;20590;-75
2021/11/10 10:19:16;;;;;;;7.70;6.40;;;10.50;99.90;;;;;;5030223;28;20260;-74
2021/11/10 10:21:44;;;;;;;13.17;7.00;;;10.60;99.90;;;;;;5030281;28;20232;-74
2021/11/10 10:24:14;;;;;;;9.40;7.17;;;10.60;99.90;;;;;;5013287;28;20413;-74
2021/11/10 10:26:40;;;;;;;11.73;7.50;;;10.70;99.90;;;;;;5029623;28;20506;-74
2021/11/10 10:29:10;;;;;;;11.73;7.30;;;10.70;99.90;;;;;;5032048;28;20445;-74
2021/11/10 10:31:37;;;;;;;13.03;7.40;;;10.70;99.90;;;;;;5030649;28;20423;-74
2021/11/10 10:34:16;;;;;;;8.60;6.57;;;10.60;99.90;;;;;;5011254;28;20463;-76
2021/11/10 10:36:45;;;;;;;10.53;6.60;;;10.60;99.90;;;;;;5029189;28;20480;-75
2021/11/10 10:39:15;;;;;;;9.45;7.25;;;10.60;99.90;;;;;;5029433;28;20865;-74
2021/11/10 10:41:52;;;;;;;8.20;6.50;;;10.60;99.90;;;;;;5033589;28;20174;-74
2021/11/10 10:44:23;;;;;;;12.83;6.63;;;10.60;99.90;;;;;;5039652;28;20432;-74
2021/11/10 10:47:03;;;;;;;8.10;6.43;;;10.60;99.90;;;;;;5032854;28;20452;-73
2021/11/10 10:49:33;;;;;;;8.93;7.13;;;10.60;99.90;;;;;;5032777;28;20467;-74
2021/11/10 10:52:10;;;;;;;8.60;5.93;;;10.60;99.90;;;;;;5011618;28;20436;-75
2021/11/10 10:57:58;;;;;;;9.73;6.27;;;10.60;99.90;;;;;;5026586;28;20440;-74
2021/11/10 11:00:29;;;;;;;8.07;6.60;;;10.50;99.90;;;;;;5028951;28;21113;-75
2021/11/10 11:02:56;;;;;;;8.13;5.73;;;10.50;99.90;;;;;;5011326;28;20429;-75
2021/11/10 11:05:41;;;;;;;6.63;5.83;;;10.60;99.90;;;;;;5028840;28;20420;-76
2021/11/10 11:08:33;;;;;;;10.60;5.77;;;10.60;99.90;;;;;;5029304;28;20412;-75
2021/11/10 11:11:26;;;;;;;9.67;5.97;;;10.50;99.90;;;;;;5028947;28;20412;-75
2021/11/10 11:13:55;;;;;;;10.53;5.80;;;10.60;99.90;;;;;;5028949;28;20482;-74
2021/11/10 11:16:25;;;;;;;7.17;5.33;;;10.60;99.90;;;;;;5034801;28;20459;-74
2021/11/10 11:19:12;;;;;;;7.13;5.60;;;10.60;99.90;;;;;;5026777;28;20452;-74
2021/11/10 11:21:56;;;;;;;9.20;5.50;;;10.70;99.90;;;;;;5029176;28;20401;-74
2021/11/10 11:24:26;;;;;;;6.23;5.20;;;10.70;99.90;;;;;;5030286;28;21068;-74
2021/11/10 11:26:51;;;;;;;8.17;5.37;;;10.70;99.90;;;;;;5029050;28;20447;-74
2021/11/10 11:29:18;;;;;;;9.80;6.03;;;10.70;99.90;;;;;;5029061;28;20428;-75
2021/11/10 11:31:44;;;;;;;5.80;5.20;;;10.70;99.90;;;;;;5028884;28;20185;-75
2021/11/10 11:34:09;;;;;;;6.03;5.30;;;10.80;99.90;;;;;;5028995;28;20468;-75
2021/11/10 11:36:52;;;;;;;8.33;5.23;;;10.90;99.90;;;;;;5028342;28;20309;-76
2021/11/10 11:39:19;;;;;;;8.70;5.87;;;10.90;99.90;;;;;;5029292;28;20178;-74
2021/11/10 11:41:44;;;;;;;8.03;5.80;;;11.00;99.90;;;;;;5029033;28;20657;-74
2021/11/10 11:44:10;;;;;;;8.40;6.00;;;11.00;99.90;;;;;;5029626;28;20534;-74
2021/11/10 11:46:38;;;;;;;7.57;5.63;;;11.10;99.90;;;;;;5030623;28;20212;-74
2021/11/10 11:49:04;;;;;;;6.17;5.57;;;11.00;99.90;;;;;;5025930;28;20218;-75
2021/11/10 11:51:31;;;;;;;7.17;5.40;;;11.10;99.90;;;;;;5025623;28;20421;-75
2021/11/10 11:53:58;;;;;;;9.13;5.60;;;11.10;99.90;;;;;;5027728;28;20563;-75
2021/11/10 11:56:26;;;;;;;8.17;6.00;;;11.10;99.90;;;;;;5027724;28;20437;-74
2021/11/10 11:58:54;;;;;;;9.30;6.00;;;11.10;99.90;;;;;;5028750;28;20475;-74
2021/11/10 12:01:26;;;;;;;8.13;6.07;;;11.10;99.90;;;;;;5029062;28;20417;-74
2021/11/10 12:03:58;;;;;;;6.70;5.80;;;11.10;99.90;;;;;;5010614;28;20440;-75
2021/11/10 12:06:25;;;;;;;7.27;6.50;;;11.20;99.90;;;;;;5028557;28;20907;-76
2021/11/10 12:08:58;;;;;;;10.43;6.93;;;11.00;99.90;;;;;;5028443;28;20421;-73
2021/11/10 12:11:34;;;;;;;7.87;6.53;;;11.10;99.90;;;;;;5028508;28;20155;-72
2021/11/10 12:14:18;;;;;;;5.80;5.10;;;11.20;99.90;;;;;;5029113;28;21012;-73
2021/11/10 12:16:57;;;;;;;7.70;5.00;;;11.30;99.90;;;;;;5037352;28;20479;-71
2021/11/10 12:19:28;;;;;;;8.93;5.87;;;11.30;99.90;;;;;;5014080;28;21027;-72
2021/11/10 12:22:10;;;;;;;7.93;6.00;;;11.50;99.90;;;;;;5011994;28;20425;-71
2021/11/10 12:24:45;;;;;;;7.57;6.30;;;11.60;99.90;;;;;;5032536;28;20410;-72
2021/11/10 12:27:16;;;;;;;9.40;6.17;;;11.40;99.90;;;;;;5035033;28;20964;-72
2021/11/10 12:30:04;;;;;;;6.07;5.37;;;11.40;99.90;;;;;;5034676;28;20429;-73
2021/11/10 12:32:30;;;;;;;8.00;6.00;;;11.50;99.90;;;;;;5026229;28;20511;-72
2021/11/10 12:34:57;;;;;;;8.53;5.87;;;11.50;99.90;;;;;;5035283;28;20461;-73
2021/11/10 12:37:26;;;;;;;7.13;6.40;;;11.50;99.90;;;;;;5016815;28;20701;-71
2021/11/10 12:40:13;;;;;;;6.60;6.00;;;11.30;99.90;;;;;;5035184;28;20424;-72
2021/11/10 12:42:42;;;;;;;9.30;5.67;;;11.20;99.90;;;;;;5034247;28;20508;-73
2021/11/10 12:45:07;;;;;;;7.60;6.00;;;11.40;99.90;;;;;;5034475;28;20409;-74
2021/11/10 12:47:43;;;;;;;8.63;5.70;;;11.50;99.90;;;;;;5037328;28;20442;-73
2021/11/10 12:50:20;;;;;;;6.87;5.43;;;11.50;99.90;;;;;;5036222;28;20197;-73
2021/11/10 12:52:47;;;;;;;8.03;5.40;;;11.50;99.90;;;;;;5035374;28;20453;-73
2021/11/10 12:55:19;;;;;;;7.93;6.10;;;11.50;99.90;;;;;;5026382;28;20583;-73
2021/11/10 12:57:44;;;;;;;8.05;6.47;;;11.50;99.90;;;;;;5039278;28;20532;-73
2021/11/10 13:00:22;;;;;;;6.63;5.87;;;11.50;99.90;;;;;;5045698;28;20234;-72